createdAt,value
2023-01-31T00:01:37.452Z,3.72
2023-01-31T00:04:07.211Z,2.80
2023-01-31T00:06:38.650Z,1.98
2023-01-31T00:09:08.272Z,3.03
2023-01-31T00:11:36.294Z,3.10
2023-01-31T00:14:06.835Z,2.08
2023-01-31T00:16:35.080Z,2.78
2023-01-31T00:19:03.462Z,1.90
2023-01-31T00:21:31.963Z,2.80
2023-01-31T00:24:00.085Z,3.10
2023-01-31T00:26:30.045Z,2.78
2023-01-31T00:28:59.019Z,2.55
2023-01-31T00:31:28.002Z,2.58
2023-01-31T00:33:58.583Z,1.70
2023-01-31T00:36:28.540Z,3.08
2023-01-31T00:38:58.022Z,2.90
2023-01-31T00:41:29.025Z,2.35
2023-01-31T00:43:57.022Z,2.97
2023-01-31T00:46:24.689Z,1.92
2023-01-31T00:48:52.615Z,2.33
2023-01-31T00:51:20.947Z,3.22
2023-01-31T00:53:48.960Z,3.30
2023-01-31T00:56:19.048Z,2.70
2023-01-31T00:58:46.507Z,1.88
2023-01-31T01:03:40.690Z,2.50
2023-01-31T01:06:08.746Z,2.58
2023-01-31T01:08:37.187Z,4.88
2023-01-31T01:11:28.161Z,2.60
2023-01-31T01:13:55.971Z,3.78
2023-01-31T01:16:28.998Z,3.25
2023-01-31T01:18:56.218Z,3.28
2023-01-31T01:21:28.681Z,3.85
2023-01-31T01:23:57.990Z,2.90
2023-01-31T01:26:28.032Z,3.42
2023-01-31T01:28:56.324Z,3.05
2023-01-31T01:31:30.431Z,2.22
2023-01-31T01:34:01.009Z,2.28
2023-01-31T01:36:28.418Z,3.22
2023-01-31T01:38:55.787Z,3.10
2023-01-31T01:41:23.194Z,1.90
2023-01-31T01:43:56.286Z,3.05
2023-01-31T01:46:26.113Z,2.67
2023-01-31T01:49:16.411Z,3.30
2023-01-31T01:51:45.232Z,2.72
2023-01-31T01:54:20.734Z,3.20
2023-01-31T01:56:51.229Z,1.92
2023-01-31T01:59:23.599Z,2.97
2023-01-31T02:01:51.078Z,3.53
2023-01-31T02:04:23.584Z,2.90
2023-01-31T02:06:52.096Z,2.13
2023-01-31T02:09:27.619Z,2.67
2023-01-31T02:11:54.785Z,2.90
2023-01-31T02:14:21.902Z,2.50
2023-01-31T02:16:48.909Z,3.25
2023-01-31T02:19:44.248Z,2.97
2023-01-31T02:22:26.338Z,2.67
2023-01-31T02:25:24.129Z,2.13
2023-01-31T02:28:48.391Z,2.72
2023-01-31T02:31:33.549Z,2.87
2023-01-31T02:34:09.636Z,3.33
2023-01-31T02:36:55.952Z,3.60
2023-01-31T02:39:29.427Z,3.15
2023-01-31T02:42:27.018Z,3.60
2023-01-31T02:45:10.750Z,3.08
2023-01-31T02:48:05.282Z,3.70
2023-01-31T02:51:05.186Z,3.00
2023-01-31T02:53:50.996Z,2.90
2023-01-31T02:56:31.512Z,3.33
2023-01-31T02:59:08.644Z,3.50
2023-01-31T03:01:47.229Z,4.32
2023-01-31T03:04:15.043Z,4.32
2023-01-31T03:06:54.542Z,3.70
2023-01-31T03:09:36.978Z,3.25
2023-01-31T03:12:14.568Z,3.10
2023-01-31T03:14:52.325Z,3.17
2023-01-31T03:17:31.980Z,3.80
2023-01-31T03:20:04.888Z,4.15
2023-01-31T03:22:37.402Z,4.80
2023-01-31T03:25:07.502Z,3.90
2023-01-31T03:27:34.911Z,5.03
2023-01-31T03:30:10.565Z,4.55
2023-01-31T03:32:45.334Z,4.55
2023-01-31T03:35:12.732Z,4.90
2023-01-31T03:37:48.918Z,4.82
2023-01-31T03:40:21.712Z,4.38
2023-01-31T03:42:57.931Z,5.53
2023-01-31T03:45:51.358Z,4.63
2023-01-31T03:48:22.597Z,5.57
2023-01-31T03:50:55.105Z,5.05
2023-01-31T03:53:36.476Z,4.72
2023-01-31T03:56:27.092Z,6.70
2023-01-31T03:59:02.861Z,6.20
2023-01-31T04:01:34.964Z,4.95
2023-01-31T04:04:08.236Z,5.82
2023-01-31T04:06:35.392Z,5.28
2023-01-31T04:09:02.509Z,5.68
2023-01-31T04:11:29.599Z,5.40
2023-01-31T04:13:56.958Z,6.82
2023-01-31T04:16:24.056Z,5.72
2023-01-31T04:18:51.758Z,6.15
2023-01-31T04:21:18.775Z,5.60
2023-01-31T04:23:45.887Z,6.60
2023-01-31T04:26:12.945Z,6.60
2023-01-31T04:28:40.488Z,6.38
2023-01-31T04:31:07.679Z,6.65
2023-01-31T04:33:34.779Z,6.15
2023-01-31T04:36:01.976Z,6.60
2023-01-31T04:38:29.132Z,6.50
2023-01-31T04:40:56.211Z,6.88
2023-01-31T04:43:23.269Z,6.53
2023-01-31T04:45:50.744Z,6.97
2023-01-31T04:48:17.811Z,6.80
2023-01-31T04:50:44.881Z,6.85
2023-01-31T04:53:11.955Z,7.25
2023-01-31T04:55:39.298Z,7.95
2023-01-31T04:58:07.554Z,6.97
2023-01-31T05:00:34.876Z,8.18
2023-01-31T05:03:02.411Z,6.35
2023-01-31T05:05:29.928Z,6.80
2023-01-31T05:07:57.373Z,6.25
2023-01-31T05:10:24.499Z,6.78
2023-01-31T05:12:55.066Z,6.78
2023-01-31T05:15:22.777Z,7.18
2023-01-31T05:17:53.710Z,7.15
2023-01-31T05:20:21.879Z,7.57
2023-01-31T05:22:49.238Z,7.22
2023-01-31T05:25:16.525Z,8.55
2023-01-31T05:27:44.904Z,7.10
2023-01-31T05:30:12.650Z,7.05
2023-01-31T05:32:39.921Z,7.88
2023-01-31T05:35:07.839Z,7.30
2023-01-31T05:37:35.915Z,8.13
2023-01-31T05:40:03.359Z,6.60
2023-01-31T05:42:31.097Z,7.57
2023-01-31T05:44:58.431Z,7.20
2023-01-31T05:47:25.592Z,6.30
2023-01-31T05:49:52.694Z,7.88
2023-01-31T05:52:19.771Z,7.18
2023-01-31T05:54:48.193Z,7.78
2023-01-31T05:57:15.841Z,7.18
2023-01-31T05:59:42.953Z,7.78
2023-01-31T06:02:11.383Z,7.07
2023-01-31T06:04:38.489Z,7.45
2023-01-31T06:07:06.336Z,7.68
2023-01-31T06:09:33.484Z,9.55
2023-01-31T06:12:00.908Z,8.15
2023-01-31T06:14:28.101Z,8.45
2023-01-31T06:16:55.149Z,7.55
2023-01-31T06:19:25.367Z,7.30
2023-01-31T06:21:52.643Z,8.60
2023-01-31T06:24:19.794Z,7.07
2023-01-31T06:26:47.404Z,6.95
2023-01-31T06:29:14.516Z,6.97
2023-01-31T06:31:46.140Z,7.07
2023-01-31T06:34:13.339Z,7.10
2023-01-31T06:36:40.452Z,7.15
2023-01-31T06:39:07.805Z,7.10
2023-01-31T06:41:34.860Z,7.30
2023-01-31T06:44:01.989Z,8.20
2023-01-31T06:46:29.111Z,7.28
2023-01-31T06:48:56.185Z,6.53
2023-01-31T06:51:23.301Z,6.78
2023-01-31T06:53:52.131Z,6.18
2023-01-31T06:56:19.559Z,6.07
2023-01-31T06:58:46.583Z,5.97
2023-01-31T07:01:15.343Z,6.32
2023-01-31T07:03:46.524Z,5.60
2023-01-31T07:06:13.886Z,6.00
2023-01-31T07:08:41.225Z,5.13
2023-01-31T07:11:08.342Z,5.43
2023-01-31T07:13:35.635Z,5.28
2023-01-31T07:16:02.984Z,5.38
2023-01-31T07:18:30.310Z,5.63
2023-01-31T07:20:57.496Z,4.90
2023-01-31T07:23:24.724Z,5.20
2023-01-31T07:25:52.189Z,5.47
2023-01-31T07:28:19.329Z,4.85
2023-01-31T07:30:48.049Z,5.13
2023-01-31T07:33:15.213Z,4.95
2023-01-31T07:35:43.351Z,4.95
2023-01-31T07:38:11.407Z,5.05
2023-01-31T07:40:40.054Z,5.15
2023-01-31T07:43:07.656Z,5.60
2023-01-31T07:45:35.163Z,5.93
2023-01-31T07:48:02.653Z,4.70
2023-01-31T07:50:29.905Z,4.80
2023-01-31T07:52:59.935Z,4.93
2023-01-31T07:55:27.248Z,5.03
2023-01-31T07:57:54.359Z,5.50
2023-01-31T08:00:48.507Z,4.63
2023-01-31T08:03:34.705Z,5.05
2023-01-31T08:06:12.858Z,5.45
2023-01-31T08:08:42.657Z,5.70
2023-01-31T08:11:10.123Z,5.18
2023-01-31T08:13:38.626Z,4.53
2023-01-31T08:16:07.868Z,5.30
2023-01-31T08:18:36.038Z,5.50
2023-01-31T08:21:03.275Z,4.95
2023-01-31T08:23:30.990Z,5.53
2023-01-31T08:26:03.795Z,5.47
2023-01-31T08:28:31.893Z,5.33
2023-01-31T08:31:08.067Z,5.55
2023-01-31T08:33:38.378Z,5.30
2023-01-31T08:36:29.670Z,5.30
2023-01-31T08:38:57.416Z,4.20
2023-01-31T08:41:26.208Z,5.07
2023-01-31T08:43:58.088Z,4.53
2023-01-31T08:46:30.862Z,6.78
2023-01-31T08:49:00.098Z,4.28
2023-01-31T08:51:28.252Z,5.35
2023-01-31T08:53:55.374Z,4.22
2023-01-31T08:56:25.946Z,4.68
2023-01-31T08:58:54.455Z,4.28
2023-01-31T09:01:22.355Z,4.00
2023-01-31T09:03:50.826Z,4.60
2023-01-31T09:06:20.924Z,4.32
2023-01-31T09:08:48.252Z,4.32
2023-01-31T09:11:18.816Z,5.18
2023-01-31T09:13:47.511Z,4.43
2023-01-31T09:16:14.803Z,4.40
2023-01-31T09:18:42.592Z,5.10
2023-01-31T09:21:14.973Z,4.65
2023-01-31T09:23:42.964Z,5.18
2023-01-31T09:26:11.879Z,4.30
2023-01-31T09:28:39.804Z,4.28
2023-01-31T09:31:13.154Z,4.85
2023-01-31T09:33:40.924Z,4.50
2023-01-31T09:36:14.152Z,5.78
2023-01-31T09:38:42.028Z,4.05
2023-01-31T09:41:28.486Z,4.45
2023-01-31T09:44:06.275Z,4.05
2023-01-31T09:46:40.567Z,4.72
2023-01-31T09:49:16.069Z,3.88
2023-01-31T09:51:43.678Z,3.78
2023-01-31T09:54:28.737Z,5.25
2023-01-31T09:57:37.110Z,4.57
2023-01-31T10:00:22.200Z,4.75
2023-01-31T10:03:13.976Z,5.60
2023-01-31T10:05:54.855Z,6.05
2023-01-31T10:08:51.988Z,5.50
2023-01-31T10:11:30.890Z,6.55
2023-01-31T10:14:26.477Z,6.00
2023-01-31T10:17:16.557Z,6.57
2023-01-31T10:20:11.077Z,6.05
2023-01-31T10:25:35.220Z,6.38
2023-01-31T10:28:09.813Z,6.05
2023-01-31T10:30:53.047Z,6.15
2023-01-31T10:33:30.305Z,6.55
2023-01-31T10:36:02.196Z,5.88
2023-01-31T10:38:41.905Z,6.07
2023-01-31T10:41:17.314Z,5.50
2023-01-31T10:43:57.318Z,6.60
2023-01-31T10:46:24.499Z,5.18
2023-01-31T10:48:52.154Z,6.45
2023-01-31T10:51:49.580Z,6.50
2023-01-31T10:54:29.204Z,6.03
2023-01-31T10:56:58.236Z,5.65
2023-01-31T10:59:32.813Z,5.35
2023-01-31T11:02:02.280Z,6.70
2023-01-31T11:04:38.340Z,5.50
2023-01-31T11:07:06.557Z,5.72
2023-01-31T11:09:37.655Z,5.13
2023-01-31T11:12:08.323Z,6.45
2023-01-31T11:14:37.171Z,5.35
2023-01-31T11:17:23.286Z,5.75
2023-01-31T11:19:53.523Z,5.18
2023-01-31T11:22:30.440Z,5.82
2023-01-31T11:24:59.694Z,4.97
2023-01-31T11:27:28.968Z,4.80
2023-01-31T11:30:00.187Z,4.72
2023-01-31T11:32:35.136Z,5.03
2023-01-31T11:35:22.297Z,5.03
2023-01-31T11:37:58.724Z,5.45
2023-01-31T11:40:30.242Z,4.40
2023-01-31T11:43:18.770Z,4.53
2023-01-31T11:45:53.762Z,5.75
2023-01-31T11:48:27.577Z,4.35
2023-01-31T11:53:38.258Z,4.75
2023-01-31T11:56:14.566Z,5.32
2023-01-31T11:58:43.582Z,4.22
2023-01-31T12:01:15.958Z,4.53
2023-01-31T12:04:02.656Z,5.68
2023-01-31T12:06:41.589Z,4.40
2023-01-31T12:09:23.616Z,4.32
2023-01-31T12:11:56.535Z,4.82
2023-01-31T12:14:25.119Z,3.78
2023-01-31T12:16:55.854Z,3.72
2023-01-31T12:19:23.021Z,4.25
2023-01-31T12:21:50.028Z,3.67
2023-01-31T12:24:38.164Z,5.22
2023-01-31T12:27:30.109Z,4.45
2023-01-31T12:30:22.189Z,3.65
2023-01-31T12:33:06.131Z,3.22
2023-01-31T12:35:52.191Z,3.38
2023-01-31T12:38:49.301Z,2.95
2023-01-31T12:41:53.126Z,3.83
2023-01-31T12:44:52.252Z,3.28
2023-01-31T12:47:44.306Z,3.22
2023-01-31T12:50:30.696Z,3.85
2023-01-31T12:53:18.951Z,3.95
2023-01-31T12:56:04.723Z,3.55
2023-01-31T12:58:39.554Z,3.20
2023-01-31T13:01:12.908Z,3.63
2023-01-31T13:03:48.983Z,3.03
2023-01-31T13:06:26.098Z,2.80
2023-01-31T13:09:19.368Z,4.28
2023-01-31T13:11:55.143Z,3.35
2023-01-31T13:14:26.359Z,2.95
2023-01-31T13:16:58.495Z,3.40
2023-01-31T13:19:37.790Z,3.78
2023-01-31T13:22:14.707Z,4.35
2023-01-31T13:24:44.786Z,3.45
2023-01-31T13:27:39.296Z,3.42
2023-01-31T13:30:17.792Z,2.85
2023-01-31T13:32:55.202Z,3.58
2023-01-31T13:35:26.676Z,3.92
2023-01-31T13:38:00.785Z,2.70
2023-01-31T13:40:36.453Z,3.00
2023-01-31T13:43:13.196Z,3.60
2023-01-31T13:45:48.280Z,3.25
2023-01-31T13:48:39.898Z,3.08
2023-01-31T13:51:23.159Z,3.28
2023-01-31T13:54:10.337Z,2.90
2023-01-31T13:56:40.657Z,2.95
2023-01-31T13:59:10.111Z,3.22
2023-01-31T14:01:49.775Z,2.88
2023-01-31T14:04:17.687Z,3.15
2023-01-31T14:06:56.569Z,3.40
2023-01-31T14:09:27.779Z,2.92
2023-01-31T14:12:17.977Z,3.60
2023-01-31T14:14:47.492Z,2.40
2023-01-31T14:17:34.436Z,2.28
2023-01-31T14:20:26.832Z,3.05
2023-01-31T14:23:25.034Z,2.38
2023-01-31T14:25:52.224Z,2.55
2023-01-31T14:28:19.364Z,3.47
2023-01-31T14:30:48.106Z,2.53
2023-01-31T14:33:22.485Z,2.97
2023-01-31T14:36:15.692Z,2.80
2023-01-31T14:39:24.216Z,2.20
2023-01-31T14:42:08.213Z,2.15
2023-01-31T14:44:47.182Z,2.42
2023-01-31T14:47:25.805Z,3.05
2023-01-31T14:50:13.673Z,2.33
2023-01-31T14:53:00.987Z,2.42
2023-01-31T14:55:30.667Z,2.72
2023-01-31T14:58:01.952Z,2.78
2023-01-31T15:00:39.110Z,3.08
2023-01-31T15:03:16.321Z,2.38
2023-01-31T15:05:51.210Z,2.45
2023-01-31T15:08:19.693Z,2.72
2023-01-31T15:11:30.515Z,3.20
2023-01-31T15:14:33.468Z,2.60
2023-01-31T15:17:36.468Z,2.90
2023-01-31T15:20:16.859Z,2.30
2023-01-31T15:22:45.484Z,2.75
2023-01-31T15:25:36.193Z,3.20
2023-01-31T15:28:04.074Z,2.60
2023-01-31T15:30:34.975Z,2.47
2023-01-31T15:33:11.317Z,2.40
2023-01-31T15:35:56.485Z,2.47
2023-01-31T15:38:38.089Z,2.42
2023-01-31T15:41:44.248Z,3.10
2023-01-31T15:44:22.930Z,2.47
2023-01-31T15:46:52.917Z,2.45
2023-01-31T15:49:43.083Z,2.92
2023-01-31T15:52:22.827Z,2.55
2023-01-31T15:55:02.490Z,2.38
2023-01-31T15:57:41.817Z,2.20
2023-01-31T16:00:25.324Z,2.42
2023-01-31T16:03:00.608Z,2.35
2023-01-31T16:05:32.578Z,3.28
2023-01-31T16:08:02.060Z,2.58
2023-01-31T16:10:30.489Z,3.03
2023-01-31T16:13:00.897Z,2.38
2023-01-31T16:15:32.096Z,3.58
2023-01-31T16:18:03.528Z,2.90
2023-01-31T16:20:48.478Z,2.60
2023-01-31T16:23:37.284Z,4.13
2023-01-31T16:26:17.101Z,2.28
2023-01-31T16:28:47.620Z,2.50
2023-01-31T16:31:18.226Z,3.58
2023-01-31T16:33:54.630Z,2.80
2023-01-31T16:36:26.186Z,3.70
2023-01-31T16:39:02.486Z,3.17
2023-01-31T16:41:52.829Z,3.42
2023-01-31T16:44:23.077Z,3.08
2023-01-31T16:46:51.303Z,2.90
2023-01-31T16:49:21.337Z,3.35
2023-01-31T16:51:50.060Z,4.25
2023-01-31T16:54:22.234Z,2.65
2023-01-31T16:57:01.312Z,3.55
2023-01-31T16:59:34.115Z,3.05
2023-01-31T17:02:08.368Z,2.30
2023-01-31T17:04:39.051Z,4.25
2023-01-31T17:07:14.210Z,3.45
2023-01-31T17:09:41.322Z,3.60
2023-01-31T17:12:18.837Z,3.58
2023-01-31T17:14:45.997Z,2.90
2023-01-31T17:17:20.659Z,3.90
2023-01-31T17:19:49.041Z,2.88
2023-01-31T17:22:16.130Z,3.17
2023-01-31T17:24:43.233Z,3.38
2023-01-31T17:27:15.642Z,3.00
2023-01-31T17:29:47.400Z,3.88
2023-01-31T17:32:17.473Z,3.78
2023-01-31T17:34:45.920Z,3.67
2023-01-31T17:37:16.094Z,4.55
2023-01-31T17:39:43.635Z,4.15
2023-01-31T17:42:20.493Z,3.33
2023-01-31T17:44:48.011Z,3.38
2023-01-31T17:47:15.428Z,3.92
2023-01-31T17:49:44.030Z,5.00
2023-01-31T17:52:12.225Z,4.00
2023-01-31T17:54:39.463Z,3.60
2023-01-31T17:57:08.883Z,4.07
2023-01-31T17:59:36.504Z,3.40
2023-01-31T18:02:04.193Z,3.88
2023-01-31T18:04:31.416Z,4.70
2023-01-31T18:06:58.617Z,3.83
2023-01-31T18:09:26.488Z,3.67
2023-01-31T18:11:53.543Z,3.38
2023-01-31T18:14:20.738Z,4.38
2023-01-31T18:16:51.291Z,3.85
2023-01-31T18:19:18.365Z,4.25
2023-01-31T18:21:54.353Z,3.70
2023-01-31T18:24:22.433Z,4.70
2023-01-31T18:26:49.645Z,4.40
2023-01-31T18:29:19.815Z,4.15
2023-01-31T18:31:48.176Z,3.85
2023-01-31T18:34:16.301Z,4.88
2023-01-31T18:36:44.047Z,4.57
2023-01-31T18:39:11.152Z,3.78
2023-01-31T18:41:38.346Z,3.25
2023-01-31T18:44:05.787Z,3.78
2023-01-31T18:46:32.858Z,4.90
2023-01-31T18:49:00.008Z,4.05
2023-01-31T18:51:27.068Z,3.10
2023-01-31T18:53:54.090Z,3.85
2023-01-31T18:56:21.754Z,4.65
2023-01-31T18:58:49.813Z,3.78
2023-01-31T19:01:22.575Z,3.53
2023-01-31T19:03:52.923Z,4.07
2023-01-31T19:06:26.865Z,4.18
2023-01-31T19:08:56.169Z,3.85
2023-01-31T19:11:25.537Z,3.75
2023-01-31T19:13:52.927Z,3.95
2023-01-31T19:16:25.363Z,3.80
2023-01-31T19:18:53.078Z,4.13
2023-01-31T19:21:31.766Z,4.50
2023-01-31T19:24:01.581Z,4.72
2023-01-31T19:26:29.929Z,3.58
2023-01-31T19:28:58.618Z,4.28
2023-01-31T19:31:28.072Z,3.88
2023-01-31T19:33:57.954Z,4.70
2023-01-31T19:36:29.345Z,5.10
2023-01-31T19:38:58.033Z,3.45
2023-01-31T19:41:27.250Z,4.50
2023-01-31T19:43:57.008Z,4.28
2023-01-31T19:46:27.176Z,3.83
2023-01-31T19:48:55.508Z,4.25
2023-01-31T19:51:25.058Z,4.18
2023-01-31T19:53:55.218Z,4.70
2023-01-31T19:56:24.130Z,4.78
2023-01-31T19:58:51.862Z,7.63
2023-01-31T20:01:19.214Z,4.85
2023-01-31T20:03:46.572Z,4.30
2023-01-31T20:06:16.405Z,3.50
2023-01-31T20:08:43.700Z,5.45
2023-01-31T20:11:10.989Z,4.38
2023-01-31T20:13:38.089Z,3.90
2023-01-31T20:16:08.223Z,4.13
2023-01-31T20:18:36.996Z,5.38
2023-01-31T20:21:05.482Z,4.53
2023-01-31T20:23:33.143Z,4.68
2023-01-31T20:26:00.606Z,4.70
2023-01-31T20:28:28.104Z,4.07
2023-01-31T20:30:55.190Z,3.95
2023-01-31T20:33:22.522Z,4.47
2023-01-31T20:35:49.631Z,3.38
2023-01-31T20:38:18.093Z,3.72
2023-01-31T20:40:53.096Z,5.00
2023-01-31T20:43:23.357Z,4.70
2023-01-31T20:45:51.122Z,4.38
2023-01-31T20:48:18.890Z,4.07
2023-01-31T20:50:55.184Z,3.78
2023-01-31T20:53:22.838Z,3.80
2023-01-31T20:56:12.031Z,3.90
2023-01-31T20:58:40.944Z,4.05
2023-01-31T21:01:09.398Z,4.28
2023-01-31T21:03:37.228Z,4.57
2023-01-31T21:06:05.265Z,3.83
2023-01-31T21:08:33.134Z,3.00
2023-01-31T21:11:03.356Z,3.03
2023-01-31T21:13:31.541Z,3.13
2023-01-31T21:16:04.482Z,4.72
2023-01-31T21:18:34.305Z,6.47
2023-01-31T21:21:07.577Z,4.38
2023-01-31T21:23:35.960Z,4.50
2023-01-31T21:26:04.941Z,4.35
2023-01-31T21:28:32.467Z,5.22
2023-01-31T21:31:05.740Z,3.42
2023-01-31T21:33:33.471Z,3.95
2023-01-31T21:36:08.367Z,3.45
2023-01-31T21:38:36.066Z,4.88
2023-01-31T21:41:22.123Z,3.70
2023-01-31T21:43:49.133Z,4.03
2023-01-31T21:46:16.324Z,3.33
2023-01-31T21:48:43.428Z,4.90
2023-01-31T21:51:15.807Z,3.50
2023-01-31T21:53:43.375Z,4.25
2023-01-31T21:56:13.147Z,3.70
2023-01-31T21:58:41.219Z,2.95
2023-01-31T22:01:23.173Z,2.83
2023-01-31T22:03:51.926Z,4.43
2023-01-31T22:06:22.447Z,3.88
2023-01-31T22:08:58.211Z,2.78
2023-01-31T22:11:25.862Z,4.28
2023-01-31T22:13:55.921Z,4.05
2023-01-31T22:16:23.551Z,3.63
2023-01-31T22:18:51.462Z,3.72
2023-01-31T22:21:39.329Z,3.75
2023-01-31T22:24:09.839Z,4.65
2023-01-31T22:26:42.734Z,3.25
2023-01-31T22:29:12.724Z,3.20
2023-01-31T22:31:40.329Z,3.05
2023-01-31T22:34:11.243Z,3.15
2023-01-31T22:36:38.299Z,3.75
2023-01-31T22:39:05.410Z,4.63
2023-01-31T22:41:32.978Z,2.97
2023-01-31T22:44:00.114Z,3.60
2023-01-31T22:46:29.001Z,4.47
2023-01-31T22:48:56.474Z,3.45
2023-01-31T22:51:26.020Z,3.67
2023-01-31T22:53:54.513Z,3.20
2023-01-31T22:56:27.433Z,3.50
2023-01-31T22:58:59.356Z,3.47
2023-01-31T23:01:30.497Z,3.75
2023-01-31T23:03:59.548Z,3.80
2023-01-31T23:06:28.498Z,3.85
2023-01-31T23:08:56.542Z,3.83
2023-01-31T23:11:24.448Z,4.97
2023-01-31T23:13:52.215Z,4.13
2023-01-31T23:16:42.108Z,3.50
2023-01-31T23:19:10.456Z,3.95
2023-01-31T23:21:39.139Z,3.78
2023-01-31T23:24:08.263Z,3.25
2023-01-31T23:26:35.551Z,3.78
2023-01-31T23:29:03.269Z,2.60
2023-01-31T23:31:32.197Z,2.78
2023-01-31T23:34:00.620Z,4.22
2023-01-31T23:36:28.160Z,3.40
2023-01-31T23:38:55.410Z,3.33
2023-01-31T23:41:22.591Z,3.33
2023-01-31T23:43:49.665Z,3.70
2023-01-31T23:46:16.781Z,2.28
2023-01-31T23:48:43.982Z,3.35
2023-01-31T23:51:11.064Z,3.13
2023-01-31T23:53:38.069Z,3.20
2023-01-31T23:56:05.949Z,3.42
2023-01-31T23:58:32.992Z,3.00
